sensor_id;sensor_type;location;lat;lon;timestamp;P1;durP1;ratioP1;P2;durP2;ratioP2
55497;SDS011;41357;52.806;18.268;2023-08-06T00:00:20;9.65;;;4.85;;
55497;SDS011;41357;52.806;18.268;2023-08-06T00:02:46;9.82;;;4.30;;
55497;SDS011;41357;52.806;18.268;2023-08-06T00:05:12;10.65;;;4.97;;
55497;SDS011;41357;52.806;18.268;2023-08-06T00:07:38;6.07;;;4.43;;
55497;SDS011;41357;52.806;18.268;2023-08-06T00:10:04;11.00;;;4.82;;
55497;SDS011;41357;52.806;18.268;2023-08-06T00:12:31;7.50;;;5.10;;
55497;SDS011;41357;52.806;18.268;2023-08-06T00:14:57;6.45;;;5.20;;
55497;SDS011;41357;52.806;18.268;2023-08-06T00:17:23;6.10;;;4.90;;
55497;SDS011;41357;52.806;18.268;2023-08-06T00:19:49;8.40;;;4.85;;
55497;SDS011;41357;52.806;18.268;2023-08-06T00:22:15;7.93;;;5.03;;
55497;SDS011;41357;52.806;18.268;2023-08-06T00:24:41;7.05;;;4.97;;
55497;SDS011;41357;52.806;18.268;2023-08-06T00:27:07;7.57;;;4.85;;
55497;SDS011;41357;52.806;18.268;2023-08-06T00:29:33;9.05;;;5.15;;
55497;SDS011;41357;52.806;18.268;2023-08-06T00:32:00;11.05;;;5.50;;
55497;SDS011;41357;52.806;18.268;2023-08-06T00:34:26;6.68;;;4.90;;
55497;SDS011;41357;52.806;18.268;2023-08-06T00:36:52;6.63;;;5.10;;
55497;SDS011;41357;52.806;18.268;2023-08-06T00:39:19;6.40;;;4.30;;
55497;SDS011;41357;52.806;18.268;2023-08-06T00:41:45;7.75;;;5.00;;
55497;SDS011;41357;52.806;18.268;2023-08-06T00:44:11;6.25;;;5.03;;
55497;SDS011;41357;52.806;18.268;2023-08-06T00:46:37;8.88;;;5.10;;
55497;SDS011;41357;52.806;18.268;2023-08-06T00:49:04;6.70;;;5.60;;
55497;SDS011;41357;52.806;18.268;2023-08-06T00:51:30;11.77;;;6.22;;
55497;SDS011;41357;52.806;18.268;2023-08-06T00:53:58;9.23;;;5.05;;
55497;SDS011;41357;52.806;18.268;2023-08-06T00:56:24;6.55;;;4.97;;
55497;SDS011;41357;52.806;18.268;2023-08-06T00:58:50;11.60;;;5.18;;
55497;SDS011;41357;52.806;18.268;2023-08-06T01:01:17;8.45;;;6.07;;
55497;SDS011;41357;52.806;18.268;2023-08-06T01:03:43;9.02;;;5.53;;
55497;SDS011;41357;52.806;18.268;2023-08-06T01:06:09;7.15;;;5.45;;
55497;SDS011;41357;52.806;18.268;2023-08-06T01:08:48;7.82;;;5.97;;
55497;SDS011;41357;52.806;18.268;2023-08-06T01:14:06;8.18;;;4.93;;
55497;SDS011;41357;52.806;18.268;2023-08-06T01:16:34;8.63;;;5.05;;
55497;SDS011;41357;52.806;18.268;2023-08-06T01:19:02;7.70;;;5.45;;
55497;SDS011;41357;52.806;18.268;2023-08-06T01:21:28;7.35;;;5.38;;
55497;SDS011;41357;52.806;18.268;2023-08-06T01:23:54;7.97;;;4.80;;
55497;SDS011;41357;52.806;18.268;2023-08-06T01:26:33;8.65;;;5.20;;
55497;SDS011;41357;52.806;18.268;2023-08-06T01:31:32;7.28;;;4.80;;
55497;SDS011;41357;52.806;18.268;2023-08-06T01:33:59;7.05;;;5.30;;
55497;SDS011;41357;52.806;18.268;2023-08-06T01:36:26;7.30;;;5.40;;
55497;SDS011;41357;52.806;18.268;2023-08-06T01:38:54;6.65;;;4.70;;
55497;SDS011;41357;52.806;18.268;2023-08-06T01:41:20;9.30;;;5.10;;
55497;SDS011;41357;52.806;18.268;2023-08-06T01:43:49;7.68;;;4.78;;
55497;SDS011;41357;52.806;18.268;2023-08-06T01:46:15;6.88;;;4.97;;
55497;SDS011;41357;52.806;18.268;2023-08-06T01:48:41;5.72;;;4.40;;
55497;SDS011;41357;52.806;18.268;2023-08-06T01:51:07;7.85;;;4.20;;
55497;SDS011;41357;52.806;18.268;2023-08-06T01:53:33;8.80;;;4.20;;
55497;SDS011;41357;52.806;18.268;2023-08-06T01:55:59;5.30;;;4.32;;
55497;SDS011;41357;52.806;18.268;2023-08-06T01:58:25;7.65;;;4.50;;
55497;SDS011;41357;52.806;18.268;2023-08-06T02:00:52;5.03;;;3.92;;
55497;SDS011;41357;52.806;18.268;2023-08-06T02:03:18;7.20;;;4.43;;
55497;SDS011;41357;52.806;18.268;2023-08-06T02:05:44;6.68;;;4.70;;
55497;SDS011;41357;52.806;18.268;2023-08-06T02:08:10;7.22;;;4.40;;
55497;SDS011;41357;52.806;18.268;2023-08-06T02:10:37;5.55;;;4.28;;
55497;SDS011;41357;52.806;18.268;2023-08-06T02:13:03;20.35;;;5.22;;
55497;SDS011;41357;52.806;18.268;2023-08-06T02:15:29;6.18;;;4.40;;
55497;SDS011;41357;52.806;18.268;2023-08-06T02:17:55;6.60;;;4.38;;
55497;SDS011;41357;52.806;18.268;2023-08-06T02:20:21;8.43;;;4.97;;
55497;SDS011;41357;52.806;18.268;2023-08-06T02:22:47;5.93;;;4.65;;
55497;SDS011;41357;52.806;18.268;2023-08-06T02:25:13;7.97;;;5.20;;
55497;SDS011;41357;52.806;18.268;2023-08-06T02:27:39;10.57;;;5.20;;
55497;SDS011;41357;52.806;18.268;2023-08-06T02:30:06;7.40;;;5.00;;
55497;SDS011;41357;52.806;18.268;2023-08-06T02:32:32;7.35;;;5.45;;
55497;SDS011;41357;52.806;18.268;2023-08-06T02:35:01;6.30;;;4.85;;
55497;SDS011;41357;52.806;18.268;2023-08-06T02:37:27;6.10;;;4.68;;
55497;SDS011;41357;52.806;18.268;2023-08-06T02:39:53;11.07;;;4.97;;
55497;SDS011;41357;52.806;18.268;2023-08-06T02:42:19;6.22;;;5.00;;
55497;SDS011;41357;52.806;18.268;2023-08-06T02:44:45;10.13;;;5.07;;
55497;SDS011;41357;52.806;18.268;2023-08-06T02:47:11;8.85;;;4.63;;
55497;SDS011;41357;52.806;18.268;2023-08-06T02:49:37;6.13;;;4.70;;
55497;SDS011;41357;52.806;18.268;2023-08-06T02:52:03;9.60;;;4.70;;
55497;SDS011;41357;52.806;18.268;2023-08-06T02:54:29;6.82;;;4.25;;
55497;SDS011;41357;52.806;18.268;2023-08-06T02:56:57;11.43;;;4.53;;
55497;SDS011;41357;52.806;18.268;2023-08-06T02:59:23;7.93;;;5.00;;
55497;SDS011;41357;52.806;18.268;2023-08-06T03:01:49;5.82;;;4.70;;
55497;SDS011;41357;52.806;18.268;2023-08-06T03:04:15;10.32;;;4.90;;
55497;SDS011;41357;52.806;18.268;2023-08-06T03:06:43;6.25;;;4.47;;
55497;SDS011;41357;52.806;18.268;2023-08-06T03:09:09;7.70;;;4.05;;
55497;SDS011;41357;52.806;18.268;2023-08-06T03:11:35;9.25;;;4.80;;
55497;SDS011;41357;52.806;18.268;2023-08-06T03:14:01;5.75;;;4.30;;
55497;SDS011;41357;52.806;18.268;2023-08-06T03:16:27;5.35;;;4.22;;
55497;SDS011;41357;52.806;18.268;2023-08-06T03:18:53;10.38;;;4.32;;
55497;SDS011;41357;52.806;18.268;2023-08-06T03:21:19;6.65;;;4.18;;
55497;SDS011;41357;52.806;18.268;2023-08-06T03:23:49;7.07;;;4.20;;
55497;SDS011;41357;52.806;18.268;2023-08-06T03:26:15;8.75;;;4.35;;
55497;SDS011;41357;52.806;18.268;2023-08-06T03:28:41;6.95;;;4.57;;
55497;SDS011;41357;52.806;18.268;2023-08-06T03:31:07;7.55;;;4.40;;
55497;SDS011;41357;52.806;18.268;2023-08-06T03:33:33;8.07;;;4.43;;
55497;SDS011;41357;52.806;18.268;2023-08-06T03:35:59;4.70;;;4.18;;
55497;SDS011;41357;52.806;18.268;2023-08-06T03:38:25;8.13;;;4.32;;
55497;SDS011;41357;52.806;18.268;2023-08-06T03:40:52;6.13;;;3.97;;
55497;SDS011;41357;52.806;18.268;2023-08-06T03:43:18;5.07;;;4.10;;
55497;SDS011;41357;52.806;18.268;2023-08-06T03:45:45;8.57;;;3.72;;
55497;SDS011;41357;52.806;18.268;2023-08-06T03:48:11;5.82;;;4.13;;
55497;SDS011;41357;52.806;18.268;2023-08-06T03:50:37;6.57;;;3.75;;
55497;SDS011;41357;52.806;18.268;2023-08-06T03:53:04;4.65;;;3.42;;
55497;SDS011;41357;52.806;18.268;2023-08-06T03:55:30;7.47;;;3.35;;
55497;SDS011;41357;52.806;18.268;2023-08-06T03:57:56;5.93;;;3.38;;
55497;SDS011;41357;52.806;18.268;2023-08-06T04:00:22;3.67;;;3.10;;
55497;SDS011;41357;52.806;18.268;2023-08-06T04:02:48;3.88;;;2.95;;
55497;SDS011;41357;52.806;18.268;2023-08-06T04:05:15;4.50;;;2.95;;
55497;SDS011;41357;52.806;18.268;2023-08-06T04:07:42;3.15;;;2.72;;
55497;SDS011;41357;52.806;18.268;2023-08-06T04:10:08;3.50;;;2.72;;
55497;SDS011;41357;52.806;18.268;2023-08-06T04:12:34;3.33;;;2.50;;
55497;SDS011;41357;52.806;18.268;2023-08-06T04:15:04;2.80;;;2.25;;
55497;SDS011;41357;52.806;18.268;2023-08-06T04:17:30;2.40;;;1.77;;
55497;SDS011;41357;52.806;18.268;2023-08-06T04:20:00;3.80;;;2.28;;
55497;SDS011;41357;52.806;18.268;2023-08-06T04:22:27;3.97;;;2.28;;
55497;SDS011;41357;52.806;18.268;2023-08-06T04:24:53;3.72;;;2.35;;
55497;SDS011;41357;52.806;18.268;2023-08-06T04:27:19;5.32;;;2.42;;
55497;SDS011;41357;52.806;18.268;2023-08-06T04:29:45;2.83;;;2.22;;
55497;SDS011;41357;52.806;18.268;2023-08-06T04:32:11;4.05;;;2.72;;
55497;SDS011;41357;52.806;18.268;2023-08-06T04:34:37;4.80;;;2.25;;
55497;SDS011;41357;52.806;18.268;2023-08-06T04:37:04;2.67;;;2.17;;
55497;SDS011;41357;52.806;18.268;2023-08-06T04:39:30;3.30;;;2.40;;
55497;SDS011;41357;52.806;18.268;2023-08-06T04:41:57;4.82;;;2.60;;
55497;SDS011;41357;52.806;18.268;2023-08-06T04:44:23;3.80;;;2.72;;
55497;SDS011;41357;52.806;18.268;2023-08-06T04:46:49;3.63;;;3.00;;
55497;SDS011;41357;52.806;18.268;2023-08-06T04:49:15;4.82;;;3.53;;
55497;SDS011;41357;52.806;18.268;2023-08-06T04:51:41;3.28;;;2.80;;
55497;SDS011;41357;52.806;18.268;2023-08-06T04:54:07;7.28;;;3.60;;
55497;SDS011;41357;52.806;18.268;2023-08-06T04:56:33;4.38;;;2.95;;
55497;SDS011;41357;52.806;18.268;2023-08-06T04:58:59;7.35;;;3.58;;
55497;SDS011;41357;52.806;18.268;2023-08-06T05:01:26;4.05;;;3.60;;
55497;SDS011;41357;52.806;18.268;2023-08-06T05:03:52;5.68;;;3.70;;
55497;SDS011;41357;52.806;18.268;2023-08-06T05:06:18;6.43;;;3.60;;
55497;SDS011;41357;52.806;18.268;2023-08-06T05:08:44;6.55;;;3.70;;
55497;SDS011;41357;52.806;18.268;2023-08-06T05:11:10;6.55;;;4.72;;
55497;SDS011;41357;52.806;18.268;2023-08-06T05:13:36;6.38;;;4.60;;
55497;SDS011;41357;52.806;18.268;2023-08-06T05:16:02;8.43;;;4.82;;
55497;SDS011;41357;52.806;18.268;2023-08-06T05:18:28;7.68;;;6.10;;
55497;SDS011;41357;52.806;18.268;2023-08-06T05:20:55;8.57;;;5.95;;
55497;SDS011;41357;52.806;18.268;2023-08-06T05:23:22;11.60;;;6.93;;
55497;SDS011;41357;52.806;18.268;2023-08-06T05:25:49;8.23;;;6.70;;
55497;SDS011;41357;52.806;18.268;2023-08-06T05:28:15;9.13;;;6.50;;
55497;SDS011;41357;52.806;18.268;2023-08-06T05:30:41;7.57;;;5.43;;
55497;SDS011;41357;52.806;18.268;2023-08-06T05:33:07;8.45;;;6.40;;
55497;SDS011;41357;52.806;18.268;2023-08-06T05:35:33;7.25;;;6.30;;
55497;SDS011;41357;52.806;18.268;2023-08-06T05:38:00;10.18;;;6.85;;
55497;SDS011;41357;52.806;18.268;2023-08-06T05:40:26;10.55;;;7.22;;
55497;SDS011;41357;52.806;18.268;2023-08-06T05:42:55;8.75;;;6.28;;
55497;SDS011;41357;52.806;18.268;2023-08-06T05:45:21;9.63;;;6.47;;
55497;SDS011;41357;52.806;18.268;2023-08-06T05:47:48;7.78;;;5.43;;
55497;SDS011;41357;52.806;18.268;2023-08-06T05:50:14;9.07;;;5.78;;
55497;SDS011;41357;52.806;18.268;2023-08-06T05:52:40;8.57;;;5.57;;
55497;SDS011;41357;52.806;18.268;2023-08-06T05:55:07;8.00;;;5.50;;
55497;SDS011;41357;52.806;18.268;2023-08-06T05:57:33;6.57;;;4.63;;
55497;SDS011;41357;52.806;18.268;2023-08-06T05:59:59;7.00;;;4.75;;
55497;SDS011;41357;52.806;18.268;2023-08-06T06:02:26;6.10;;;4.78;;
55497;SDS011;41357;52.806;18.268;2023-08-06T06:04:52;6.63;;;4.70;;
55497;SDS011;41357;52.806;18.268;2023-08-06T06:07:18;6.07;;;4.75;;
55497;SDS011;41357;52.806;18.268;2023-08-06T06:09:44;6.15;;;4.43;;
55497;SDS011;41357;52.806;18.268;2023-08-06T06:12:10;6.45;;;4.93;;
55497;SDS011;41357;52.806;18.268;2023-08-06T06:14:36;6.50;;;4.95;;
55497;SDS011;41357;52.806;18.268;2023-08-06T06:17:02;7.85;;;4.82;;
55497;SDS011;41357;52.806;18.268;2023-08-06T06:19:28;11.73;;;4.53;;
55497;SDS011;41357;52.806;18.268;2023-08-06T06:21:55;6.13;;;4.80;;
55497;SDS011;41357;52.806;18.268;2023-08-06T06:24:22;7.30;;;5.38;;
55497;SDS011;41357;52.806;18.268;2023-08-06T06:26:48;11.00;;;5.00;;
55497;SDS011;41357;52.806;18.268;2023-08-06T06:29:14;8.00;;;5.18;;
55497;SDS011;41357;52.806;18.268;2023-08-06T06:31:41;7.63;;;4.85;;
55497;SDS011;41357;52.806;18.268;2023-08-06T06:34:07;7.30;;;4.95;;
55497;SDS011;41357;52.806;18.268;2023-08-06T06:36:33;9.13;;;4.78;;
55497;SDS011;41357;52.806;18.268;2023-08-06T06:38:59;6.75;;;4.00;;
55497;SDS011;41357;52.806;18.268;2023-08-06T06:41:25;5.30;;;4.13;;
55497;SDS011;41357;52.806;18.268;2023-08-06T06:43:51;8.43;;;4.78;;
55497;SDS011;41357;52.806;18.268;2023-08-06T06:46:17;6.00;;;4.55;;
55497;SDS011;41357;52.806;18.268;2023-08-06T06:48:43;6.07;;;4.88;;
55497;SDS011;41357;52.806;18.268;2023-08-06T06:51:09;10.13;;;4.57;;
55497;SDS011;41357;52.806;18.268;2023-08-06T06:53:36;7.10;;;4.85;;
55497;SDS011;41357;52.806;18.268;2023-08-06T06:56:02;7.43;;;5.18;;
55497;SDS011;41357;52.806;18.268;2023-08-06T06:58:29;9.15;;;5.15;;
55497;SDS011;41357;52.806;18.268;2023-08-06T07:00:55;7.40;;;4.93;;
55497;SDS011;41357;52.806;18.268;2023-08-06T07:03:22;7.38;;;5.03;;
55497;SDS011;41357;52.806;18.268;2023-08-06T07:05:48;6.80;;;5.03;;
55497;SDS011;41357;52.806;18.268;2023-08-06T07:08:15;7.20;;;4.90;;
55497;SDS011;41357;52.806;18.268;2023-08-06T07:10:41;6.35;;;4.95;;
55497;SDS011;41357;52.806;18.268;2023-08-06T07:13:08;10.20;;;4.53;;
55497;SDS011;41357;52.806;18.268;2023-08-06T07:15:34;5.45;;;4.43;;
55497;SDS011;41357;52.806;18.268;2023-08-06T07:18:01;7.25;;;4.68;;
55497;SDS011;41357;52.806;18.268;2023-08-06T07:20:27;6.80;;;4.60;;
55497;SDS011;41357;52.806;18.268;2023-08-06T07:22:58;6.35;;;4.60;;
55497;SDS011;41357;52.806;18.268;2023-08-06T07:25:24;6.95;;;4.57;;
55497;SDS011;41357;52.806;18.268;2023-08-06T07:27:50;10.50;;;4.03;;
55497;SDS011;41357;52.806;18.268;2023-08-06T07:30:17;5.43;;;4.30;;
55497;SDS011;41357;52.806;18.268;2023-08-06T07:32:43;5.55;;;4.30;;
55497;SDS011;41357;52.806;18.268;2023-08-06T07:35:09;6.32;;;4.53;;
55497;SDS011;41357;52.806;18.268;2023-08-06T07:37:38;4.70;;;3.80;;
55497;SDS011;41357;52.806;18.268;2023-08-06T07:40:04;4.30;;;3.67;;
55497;SDS011;41357;52.806;18.268;2023-08-06T07:42:31;5.40;;;4.32;;
55497;SDS011;41357;52.806;18.268;2023-08-06T07:44:58;4.57;;;3.97;;
55497;SDS011;41357;52.806;18.268;2023-08-06T07:47:24;4.60;;;4.05;;
55497;SDS011;41357;52.806;18.268;2023-08-06T07:49:50;4.97;;;4.13;;
55497;SDS011;41357;52.806;18.268;2023-08-06T07:52:19;6.47;;;4.28;;
55497;SDS011;41357;52.806;18.268;2023-08-06T07:54:45;5.55;;;4.57;;
55497;SDS011;41357;52.806;18.268;2023-08-06T07:57:11;5.05;;;3.72;;
55497;SDS011;41357;52.806;18.268;2023-08-06T07:59:38;6.45;;;3.78;;
55497;SDS011;41357;52.806;18.268;2023-08-06T08:02:05;4.72;;;3.75;;
55497;SDS011;41357;52.806;18.268;2023-08-06T08:04:31;5.90;;;4.38;;
55497;SDS011;41357;52.806;18.268;2023-08-06T08:06:57;3.95;;;3.30;;
55497;SDS011;41357;52.806;18.268;2023-08-06T08:09:23;5.72;;;4.10;;
55497;SDS011;41357;52.806;18.268;2023-08-06T08:11:49;4.55;;;3.72;;
55497;SDS011;41357;52.806;18.268;2023-08-06T08:14:16;4.97;;;3.83;;
55497;SDS011;41357;52.806;18.268;2023-08-06T08:16:42;5.82;;;3.90;;
55497;SDS011;41357;52.806;18.268;2023-08-06T08:19:08;5.55;;;4.20;;
55497;SDS011;41357;52.806;18.268;2023-08-06T08:21:34;6.68;;;4.28;;
55497;SDS011;41357;52.806;18.268;2023-08-06T08:24:00;8.80;;;4.75;;
55497;SDS011;41357;52.806;18.268;2023-08-06T08:26:26;6.43;;;4.10;;
55497;SDS011;41357;52.806;18.268;2023-08-06T08:28:53;4.95;;;4.13;;
55497;SDS011;41357;52.806;18.268;2023-08-06T08:31:19;7.50;;;4.25;;
55497;SDS011;41357;52.806;18.268;2023-08-06T08:33:45;6.13;;;4.28;;
55497;SDS011;41357;52.806;18.268;2023-08-06T08:36:11;5.93;;;4.95;;
55497;SDS011;41357;52.806;18.268;2023-08-06T08:38:37;5.32;;;4.30;;
55497;SDS011;41357;52.806;18.268;2023-08-06T08:41:03;6.35;;;4.40;;
55497;SDS011;41357;52.806;18.268;2023-08-06T08:43:30;5.80;;;4.63;;
55497;SDS011;41357;52.806;18.268;2023-08-06T08:45:57;6.13;;;4.80;;
55497;SDS011;41357;52.806;18.268;2023-08-06T08:48:26;8.70;;;4.95;;
55497;SDS011;41357;52.806;18.268;2023-08-06T08:50:52;7.32;;;4.38;;
55497;SDS011;41357;52.806;18.268;2023-08-06T08:53:18;7.60;;;5.13;;
55497;SDS011;41357;52.806;18.268;2023-08-06T08:55:48;7.35;;;5.28;;
55497;SDS011;41357;52.806;18.268;2023-08-06T08:58:14;7.22;;;5.57;;
55497;SDS011;41357;52.806;18.268;2023-08-06T09:00:45;6.88;;;5.15;;
55497;SDS011;41357;52.806;18.268;2023-08-06T09:03:12;8.00;;;5.93;;
55497;SDS011;41357;52.806;18.268;2023-08-06T09:05:39;7.25;;;4.95;;
55497;SDS011;41357;52.806;18.268;2023-08-06T09:08:05;6.97;;;5.05;;
55497;SDS011;41357;52.806;18.268;2023-08-06T09:10:33;8.63;;;5.50;;
55497;SDS011;41357;52.806;18.268;2023-08-06T09:13:00;7.93;;;5.57;;
55497;SDS011;41357;52.806;18.268;2023-08-06T09:15:28;7.38;;;5.45;;
55497;SDS011;41357;52.806;18.268;2023-08-06T09:17:55;7.82;;;5.53;;
55497;SDS011;41357;52.806;18.268;2023-08-06T09:20:22;10.00;;;6.10;;
55497;SDS011;41357;52.806;18.268;2023-08-06T09:22:48;10.65;;;5.85;;
55497;SDS011;41357;52.806;18.268;2023-08-06T09:25:21;6.93;;;5.68;;
55497;SDS011;41357;52.806;18.268;2023-08-06T09:27:48;7.03;;;5.10;;
55497;SDS011;41357;52.806;18.268;2023-08-06T09:30:28;7.55;;;5.70;;
55497;SDS011;41357;52.806;18.268;2023-08-06T09:32:55;8.05;;;5.47;;
55497;SDS011;41357;52.806;18.268;2023-08-06T09:35:22;6.85;;;5.00;;
55497;SDS011;41357;52.806;18.268;2023-08-06T09:37:48;8.50;;;5.25;;
55497;SDS011;41357;52.806;18.268;2023-08-06T09:42:59;5.88;;;5.03;;
55497;SDS011;41357;52.806;18.268;2023-08-06T09:45:28;10.00;;;5.00;;
55497;SDS011;41357;52.806;18.268;2023-08-06T09:47:57;6.53;;;4.95;;
55497;SDS011;41357;52.806;18.268;2023-08-06T09:50:26;8.40;;;4.95;;
55497;SDS011;41357;52.806;18.268;2023-08-06T09:52:54;6.90;;;4.93;;
55497;SDS011;41357;52.806;18.268;2023-08-06T09:55:20;10.82;;;5.80;;
55497;SDS011;41357;52.806;18.268;2023-08-06T09:57:47;7.30;;;5.30;;
55497;SDS011;41357;52.806;18.268;2023-08-06T10:00:14;6.28;;;4.80;;
55497;SDS011;41357;52.806;18.268;2023-08-06T10:02:41;7.20;;;5.45;;
55497;SDS011;41357;52.806;18.268;2023-08-06T10:05:08;6.35;;;4.72;;
55497;SDS011;41357;52.806;18.268;2023-08-06T10:07:35;5.70;;;4.60;;
55497;SDS011;41357;52.806;18.268;2023-08-06T10:10:01;6.03;;;4.70;;
55497;SDS011;41357;52.806;18.268;2023-08-06T10:12:28;5.00;;;4.30;;
55497;SDS011;41357;52.806;18.268;2023-08-06T10:14:56;7.38;;;4.30;;
55497;SDS011;41357;52.806;18.268;2023-08-06T10:17:23;5.78;;;4.38;;
55497;SDS011;41357;52.806;18.268;2023-08-06T10:19:49;5.45;;;4.50;;
55497;SDS011;41357;52.806;18.268;2023-08-06T10:22:19;6.75;;;5.00;;
55497;SDS011;41357;52.806;18.268;2023-08-06T10:24:48;5.18;;;4.25;;
55497;SDS011;41357;52.806;18.268;2023-08-06T10:27:41;7.10;;;4.55;;
55497;SDS011;41357;52.806;18.268;2023-08-06T10:32:46;4.93;;;4.35;;
55497;SDS011;41357;52.806;18.268;2023-08-06T10:38:08;5.22;;;4.03;;
55497;SDS011;41357;52.806;18.268;2023-08-06T10:40:35;5.15;;;3.90;;
55497;SDS011;41357;52.806;18.268;2023-08-06T10:43:04;5.57;;;4.30;;
55497;SDS011;41357;52.806;18.268;2023-08-06T10:45:36;9.50;;;4.53;;
55497;SDS011;41357;52.806;18.268;2023-08-06T10:48:02;5.25;;;4.22;;
55497;SDS011;41357;52.806;18.268;2023-08-06T10:50:29;5.30;;;4.05;;
55497;SDS011;41357;52.806;18.268;2023-08-06T10:52:57;5.15;;;4.43;;
55497;SDS011;41357;52.806;18.268;2023-08-06T10:55:27;7.70;;;4.32;;
55497;SDS011;41357;52.806;18.268;2023-08-06T11:00:23;5.38;;;3.92;;
55497;SDS011;41357;52.806;18.268;2023-08-06T11:02:49;6.60;;;4.22;;
55497;SDS011;41357;52.806;18.268;2023-08-06T11:05:15;15.07;;;5.40;;
55497;SDS011;41357;52.806;18.268;2023-08-06T11:07:42;4.93;;;4.35;;
55497;SDS011;41357;52.806;18.268;2023-08-06T11:10:10;7.57;;;4.65;;
55497;SDS011;41357;52.806;18.268;2023-08-06T11:12:36;5.47;;;4.57;;
55497;SDS011;41357;52.806;18.268;2023-08-06T11:15:02;6.40;;;4.50;;
55497;SDS011;41357;52.806;18.268;2023-08-06T11:17:30;5.70;;;4.85;;
55497;SDS011;41357;52.806;18.268;2023-08-06T11:20:02;6.93;;;5.10;;
55497;SDS011;41357;52.806;18.268;2023-08-06T11:22:29;7.45;;;4.80;;
55497;SDS011;41357;52.806;18.268;2023-08-06T11:24:56;11.57;;;5.30;;
55497;SDS011;41357;52.806;18.268;2023-08-06T11:27:22;8.77;;;5.43;;
55497;SDS011;41357;52.806;18.268;2023-08-06T11:29:48;8.07;;;5.82;;
55497;SDS011;41357;52.806;18.268;2023-08-06T11:32:14;7.97;;;5.70;;
55497;SDS011;41357;52.806;18.268;2023-08-06T11:34:41;11.85;;;7.10;;
55497;SDS011;41357;52.806;18.268;2023-08-06T11:37:07;9.63;;;7.40;;
55497;SDS011;41357;52.806;18.268;2023-08-06T11:39:34;15.50;;;8.75;;
55497;SDS011;41357;52.806;18.268;2023-08-06T11:42:00;14.15;;;8.63;;
55497;SDS011;41357;52.806;18.268;2023-08-06T11:44:29;13.55;;;8.70;;
55497;SDS011;41357;52.806;18.268;2023-08-06T11:46:57;15.37;;;9.40;;
55497;SDS011;41357;52.806;18.268;2023-08-06T11:52:09;17.60;;;11.18;;
55497;SDS011;41357;52.806;18.268;2023-08-06T11:54:36;16.88;;;10.65;;
55497;SDS011;41357;52.806;18.268;2023-08-06T11:57:05;22.45;;;11.73;;
55497;SDS011;41357;52.806;18.268;2023-08-06T11:59:31;27.80;;;13.02;;
55497;SDS011;41357;52.806;18.268;2023-08-06T12:01:57;23.67;;;12.10;;
55497;SDS011;41357;52.806;18.268;2023-08-06T12:04:26;18.25;;;12.00;;
55497;SDS011;41357;52.806;18.268;2023-08-06T12:06:52;26.25;;;11.73;;
55497;SDS011;41357;52.806;18.268;2023-08-06T12:09:18;19.20;;;13.13;;
55497;SDS011;41357;52.806;18.268;2023-08-06T12:11:45;20.50;;;13.48;;
55497;SDS011;41357;52.806;18.268;2023-08-06T12:14:11;26.98;;;14.77;;
55497;SDS011;41357;52.806;18.268;2023-08-06T12:16:38;22.50;;;14.32;;
55497;SDS011;41357;52.806;18.268;2023-08-06T12:19:04;27.55;;;14.65;;
55497;SDS011;41357;52.806;18.268;2023-08-06T12:21:30;26.00;;;15.75;;
55497;SDS011;41357;52.806;18.268;2023-08-06T12:23:57;27.80;;;14.75;;
55497;SDS011;41357;52.806;18.268;2023-08-06T12:26:23;26.10;;;14.77;;
55497;SDS011;41357;52.806;18.268;2023-08-06T12:28:49;23.05;;;13.90;;
55497;SDS011;41357;52.806;18.268;2023-08-06T12:31:15;23.55;;;15.15;;
55497;SDS011;41357;52.806;18.268;2023-08-06T12:33:41;22.30;;;14.25;;
55497;SDS011;41357;52.806;18.268;2023-08-06T12:36:07;29.05;;;15.90;;
55497;SDS011;41357;52.806;18.268;2023-08-06T12:38:33;25.25;;;16.25;;
55497;SDS011;41357;52.806;18.268;2023-08-06T12:40:59;27.67;;;18.10;;
55497;SDS011;41357;52.806;18.268;2023-08-06T12:43:26;29.88;;;17.50;;
55497;SDS011;41357;52.806;18.268;2023-08-06T12:45:52;32.38;;;18.17;;
55497;SDS011;41357;52.806;18.268;2023-08-06T12:48:18;29.38;;;17.98;;
55497;SDS011;41357;52.806;18.268;2023-08-06T12:50:44;26.33;;;17.52;;
55497;SDS011;41357;52.806;18.268;2023-08-06T12:53:10;32.35;;;18.73;;
55497;SDS011;41357;52.806;18.268;2023-08-06T12:55:36;28.27;;;18.30;;
55497;SDS011;41357;52.806;18.268;2023-08-06T12:58:04;28.77;;;18.35;;
55497;SDS011;41357;52.806;18.268;2023-08-06T13:00:30;32.25;;;19.40;;
55497;SDS011;41357;52.806;18.268;2023-08-06T13:02:57;31.67;;;19.73;;
55497;SDS011;41357;52.806;18.268;2023-08-06T13:05:23;35.22;;;20.02;;
55497;SDS011;41357;52.806;18.268;2023-08-06T13:07:49;31.90;;;18.85;;
55497;SDS011;41357;52.806;18.268;2023-08-06T13:10:16;30.70;;;19.67;;
55497;SDS011;41357;52.806;18.268;2023-08-06T13:12:42;32.72;;;19.45;;
55497;SDS011;41357;52.806;18.268;2023-08-06T13:15:08;30.77;;;18.13;;
55497;SDS011;41357;52.806;18.268;2023-08-06T13:17:35;29.15;;;18.80;;
55497;SDS011;41357;52.806;18.268;2023-08-06T13:20:01;31.90;;;19.42;;
55497;SDS011;41357;52.806;18.268;2023-08-06T13:22:27;38.83;;;21.67;;
55497;SDS011;41357;52.806;18.268;2023-08-06T13:24:53;39.80;;;21.80;;
55497;SDS011;41357;52.806;18.268;2023-08-06T13:27:20;35.58;;;22.67;;
55497;SDS011;41357;52.806;18.268;2023-08-06T13:29:46;35.85;;;21.02;;
55497;SDS011;41357;52.806;18.268;2023-08-06T13:32:12;12.18;;;6.60;;
55497;SDS011;41357;52.806;18.268;2023-08-06T13:34:38;22.45;;;10.05;;
55497;SDS011;41357;52.806;18.268;2023-08-06T13:37:04;9.40;;;5.53;;
55497;SDS011;41357;52.806;18.268;2023-08-06T13:39:31;5.32;;;2.42;;
55497;SDS011;41357;52.806;18.268;2023-08-06T13:41:58;4.60;;;1.40;;
55497;SDS011;41357;52.806;18.268;2023-08-06T13:44:24;3.05;;;0.77;;
55497;SDS011;41357;52.806;18.268;2023-08-06T13:46:51;1.08;;;0.73;;
55497;SDS011;41357;52.806;18.268;2023-08-06T13:49:17;0.32;;;0.32;;
55497;SDS011;41357;52.806;18.268;2023-08-06T13:51:43;3.25;;;0.50;;
55497;SDS011;41357;52.806;18.268;2023-08-06T13:54:09;0.32;;;0.30;;
55497;SDS011;41357;52.806;18.268;2023-08-06T13:56:35;0.40;;;0.38;;
55497;SDS011;41357;52.806;18.268;2023-08-06T13:59:02;2.70;;;0.40;;
55497;SDS011;41357;52.806;18.268;2023-08-06T14:01:29;0.45;;;0.45;;
55497;SDS011;41357;52.806;18.268;2023-08-06T14:03:55;2.00;;;0.60;;
55497;SDS011;41357;52.806;18.268;2023-08-06T14:06:25;1.45;;;0.60;;
55497;SDS011;41357;52.806;18.268;2023-08-06T14:08:54;0.75;;;0.60;;
55497;SDS011;41357;52.806;18.268;2023-08-06T14:11:20;0.60;;;0.45;;
55497;SDS011;41357;52.806;18.268;2023-08-06T14:13:46;0.80;;;0.43;;
55497;SDS011;41357;52.806;18.268;2023-08-06T14:16:12;2.05;;;0.52;;
55497;SDS011;41357;52.806;18.268;2023-08-06T14:18:38;2.75;;;0.70;;
55497;SDS011;41357;52.806;18.268;2023-08-06T14:21:06;1.48;;;0.90;;
55497;SDS011;41357;52.806;18.268;2023-08-06T14:23:33;0.85;;;0.60;;
55497;SDS011;41357;52.806;18.268;2023-08-06T14:25:59;2.20;;;0.80;;
55497;SDS011;41357;52.806;18.268;2023-08-06T14:28:25;1.05;;;0.40;;
55497;SDS011;41357;52.806;18.268;2023-08-06T14:30:51;2.10;;;0.50;;
55497;SDS011;41357;52.806;18.268;2023-08-06T14:33:18;1.35;;;0.40;;
55497;SDS011;41357;52.806;18.268;2023-08-06T14:35:44;1.77;;;0.50;;
55497;SDS011;41357;52.806;18.268;2023-08-06T14:38:10;0.73;;;0.43;;
55497;SDS011;41357;52.806;18.268;2023-08-06T14:40:36;0.55;;;0.40;;
55497;SDS011;41357;52.806;18.268;2023-08-06T14:43:08;0.70;;;0.50;;
55497;SDS011;41357;52.806;18.268;2023-08-06T14:48:01;0.98;;;0.50;;